createdAt,value
2023-03-26T00:01:39.783Z,26.88
2023-03-26T00:04:26.067Z,44.60
2023-03-26T00:07:12.734Z,36.55
2023-03-26T00:09:59.043Z,37.95
2023-03-26T00:12:44.399Z,40.10
2023-03-26T00:15:33.012Z,48.75
2023-03-26T00:18:24.770Z,31.08
2023-03-26T00:21:13.657Z,36.35
2023-03-26T00:24:04.438Z,35.78
2023-03-26T00:26:53.474Z,38.28
2023-03-26T00:29:40.017Z,37.53
2023-03-26T00:32:27.986Z,44.60
2023-03-26T00:35:14.027Z,35.92
2023-03-26T00:37:59.839Z,36.42
2023-03-26T00:40:47.984Z,38.67
2023-03-26T00:43:36.608Z,34.70
2023-03-26T00:46:23.341Z,45.08
2023-03-26T00:49:10.936Z,36.92
2023-03-26T00:51:56.867Z,40.10
2023-03-26T00:54:42.763Z,37.13
2023-03-26T00:57:36.001Z,40.83
2023-03-26T01:00:31.748Z,39.35
2023-03-26T01:03:26.702Z,37.78
2023-03-26T01:06:22.760Z,37.05
2023-03-26T01:09:19.225Z,49.35
2023-03-26T01:12:08.375Z,40.30
2023-03-26T01:14:56.648Z,38.15
2023-03-26T01:17:43.145Z,32.85
2023-03-26T01:20:30.430Z,30.65
2023-03-26T01:23:23.573Z,38.17
2023-03-26T01:26:36.416Z,33.05
2023-03-26T01:29:29.922Z,30.38
2023-03-26T01:35:21.383Z,32.22
2023-03-26T01:38:23.240Z,36.05
2023-03-26T01:41:37.434Z,38.42
2023-03-26T01:44:38.325Z,30.08
2023-03-26T01:47:24.543Z,31.40
2023-03-26T01:50:10.533Z,32.42
2023-03-26T01:52:56.141Z,28.33
2023-03-26T01:56:19.549Z,23.40
2023-03-26T01:59:08.946Z,27.38
2023-03-26T02:02:04.818Z,23.52
2023-03-26T02:05:34.824Z,24.40
2023-03-26T02:08:31.717Z,26.73
2023-03-26T02:11:17.767Z,28.55
2023-03-26T02:14:05.345Z,30.60
2023-03-26T02:16:51.517Z,23.13
2023-03-26T02:19:42.110Z,17.85
2023-03-26T02:22:29.975Z,20.70
2023-03-26T02:25:18.055Z,28.73
2023-03-26T02:28:04.342Z,20.02
2023-03-26T02:30:49.641Z,21.83
2023-03-26T02:33:35.213Z,27.83
2023-03-26T02:36:24.450Z,19.08
2023-03-26T02:39:11.069Z,18.58
2023-03-26T02:41:56.277Z,22.17
2023-03-26T02:44:42.247Z,20.05
2023-03-26T02:47:27.459Z,16.08
2023-03-26T02:50:12.992Z,15.10
2023-03-26T02:52:59.006Z,14.60
2023-03-26T02:55:45.032Z,23.33
2023-03-26T02:58:30.372Z,20.23
2023-03-26T03:01:18.512Z,16.02
2023-03-26T03:04:04.466Z,9.55
2023-03-26T03:06:53.024Z,17.48
2023-03-26T03:09:38.772Z,14.30
2023-03-26T03:12:23.994Z,16.13
2023-03-26T03:15:09.882Z,13.77
2023-03-26T03:17:55.619Z,11.80
2023-03-26T03:20:41.614Z,12.32
2023-03-26T03:23:27.424Z,9.38
2023-03-26T03:26:15.666Z,16.77
2023-03-26T03:29:01.349Z,12.80
2023-03-26T03:31:46.944Z,4.88
2023-03-26T03:34:32.644Z,14.73
2023-03-26T03:37:19.341Z,14.48
2023-03-26T03:40:08.286Z,9.25
2023-03-26T03:42:53.463Z,12.15
2023-03-26T03:45:38.972Z,10.30
2023-03-26T03:48:24.551Z,14.63
2023-03-26T03:51:10.646Z,13.32
2023-03-26T03:53:55.997Z,14.15
2023-03-26T03:56:41.513Z,8.73
2023-03-26T03:59:27.113Z,7.53
2023-03-26T04:02:12.534Z,9.27
2023-03-26T04:04:58.521Z,10.65
2023-03-26T04:07:45.241Z,5.60
2023-03-26T04:10:30.812Z,4.07
2023-03-26T04:13:17.036Z,5.95
2023-03-26T04:16:02.345Z,5.72
2023-03-26T04:18:47.850Z,9.48
2023-03-26T04:21:37.743Z,4.03
2023-03-26T04:24:24.508Z,9.02
2023-03-26T04:27:16.066Z,2.20
2023-03-26T04:30:02.048Z,4.07
2023-03-26T04:32:47.399Z,4.03
2023-03-26T04:35:34.510Z,4.88
2023-03-26T04:38:20.272Z,6.97
2023-03-26T04:41:07.733Z,5.40
2023-03-26T04:43:53.726Z,2.42
2023-03-26T04:46:43.786Z,3.55
2023-03-26T04:49:29.719Z,2.28
2023-03-26T04:52:15.890Z,1.38
2023-03-26T04:55:01.654Z,2.28
2023-03-26T04:57:53.733Z,3.83
2023-03-26T05:00:39.937Z,3.45
2023-03-26T05:03:25.819Z,2.17
2023-03-26T05:06:12.200Z,3.72
2023-03-26T05:08:57.779Z,2.88
2023-03-26T05:11:43.340Z,3.28
2023-03-26T05:14:28.946Z,3.45
2023-03-26T05:17:18.824Z,5.63
2023-03-26T05:20:04.454Z,1.38
2023-03-26T05:22:50.716Z,6.32
2023-03-26T05:25:36.865Z,3.53
2023-03-26T05:28:24.602Z,5.90
2023-03-26T05:31:10.456Z,2.00
2023-03-26T05:33:56.947Z,5.70
2023-03-26T05:36:42.636Z,4.70
2023-03-26T05:39:29.919Z,2.58
2023-03-26T05:42:15.694Z,3.03
2023-03-26T05:45:01.292Z,4.47
2023-03-26T05:47:47.848Z,3.35
2023-03-26T05:50:33.459Z,5.70
2023-03-26T05:53:19.563Z,3.03
2023-03-26T05:56:05.651Z,1.60
2023-03-26T05:58:52.325Z,5.20
2023-03-26T06:01:38.561Z,1.60
2023-03-26T06:04:24.572Z,4.68
2023-03-26T06:07:10.164Z,4.15
2023-03-26T06:09:55.634Z,4.97
2023-03-26T06:12:41.628Z,4.45
2023-03-26T06:15:27.034Z,3.97
2023-03-26T06:18:12.736Z,5.25
2023-03-26T06:20:59.677Z,4.53
2023-03-26T06:23:45.161Z,3.53
2023-03-26T06:26:30.747Z,7.03
2023-03-26T06:29:16.145Z,2.88
2023-03-26T06:32:12.512Z,2.80
2023-03-26T06:35:01.952Z,3.65
2023-03-26T06:37:47.301Z,4.90
2023-03-26T06:40:33.807Z,3.90
2023-03-26T06:43:19.240Z,7.72
2023-03-26T06:46:04.682Z,6.53
2023-03-26T06:48:51.770Z,5.15
2023-03-26T06:51:38.656Z,4.25
2023-03-26T06:54:24.409Z,5.63
2023-03-26T06:57:09.829Z,3.33
2023-03-26T06:59:55.687Z,4.15
2023-03-26T07:02:41.321Z,4.05
2023-03-26T07:05:27.046Z,5.90
2023-03-26T07:08:12.347Z,3.58
2023-03-26T07:10:58.030Z,6.53
2023-03-26T07:13:43.634Z,3.03
2023-03-26T07:16:28.889Z,4.03
2023-03-26T07:19:14.362Z,1.77
2023-03-26T07:22:00.500Z,4.97
2023-03-26T07:24:46.393Z,6.43
2023-03-26T07:27:58.595Z,4.15
2023-03-26T07:31:02.986Z,2.45
2023-03-26T07:34:08.711Z,2.05
2023-03-26T07:37:05.637Z,3.08
2023-03-26T07:40:16.808Z,3.10
2023-03-26T07:43:23.880Z,1.10
2023-03-26T07:46:12.776Z,0.93
2023-03-26T07:49:00.376Z,1.67
2023-03-26T07:51:46.619Z,2.28
2023-03-26T07:54:32.134Z,4.13
2023-03-26T07:57:36.051Z,5.47
2023-03-26T08:00:29.133Z,2.17
2023-03-26T08:03:39.338Z,2.90
2023-03-26T08:06:36.203Z,6.50
2023-03-26T08:09:45.820Z,4.85
2023-03-26T08:12:44.165Z,5.97
2023-03-26T08:15:45.225Z,5.30
2023-03-26T08:19:00.515Z,5.00
2023-03-26T08:21:56.076Z,3.90
2023-03-26T08:24:53.818Z,7.10
2023-03-26T08:28:17.569Z,4.60
2023-03-26T08:31:03.955Z,4.03
2023-03-26T08:33:50.143Z,4.68
2023-03-26T08:36:36.972Z,5.88
2023-03-26T08:39:22.511Z,5.63
2023-03-26T08:42:36.747Z,2.65
2023-03-26T08:48:59.432Z,2.40
2023-03-26T08:52:22.745Z,2.83
2023-03-26T08:55:25.878Z,2.58
2023-03-26T08:58:49.885Z,2.22
2023-03-26T09:05:02.006Z,2.63
2023-03-26T09:08:09.920Z,3.28
2023-03-26T09:11:18.547Z,3.92
2023-03-26T09:14:13.688Z,2.15
2023-03-26T09:17:07.969Z,2.72
2023-03-26T09:20:26.705Z,2.22
2023-03-26T09:23:31.389Z,1.15
2023-03-26T09:26:47.195Z,1.73
2023-03-26T09:30:10.009Z,2.05
2023-03-26T09:33:33.274Z,2.88
2023-03-26T09:36:27.283Z,1.95
2023-03-26T09:39:45.925Z,2.53
2023-03-26T09:42:44.446Z,4.07
2023-03-26T09:45:51.768Z,2.70
2023-03-26T09:48:54.826Z,3.03
2023-03-26T09:52:12.608Z,3.63
2023-03-26T09:55:21.881Z,5.82
2023-03-26T09:58:29.049Z,2.10
2023-03-26T10:01:54.393Z,2.03
2023-03-26T10:05:05.070Z,2.80
2023-03-26T10:08:08.848Z,3.42
2023-03-26T10:14:22.206Z,2.53
2023-03-26T10:17:10.665Z,3.70
2023-03-26T10:20:25.232Z,3.13
2023-03-26T10:26:33.319Z,2.92
2023-03-26T10:29:43.544Z,4.78
2023-03-26T10:32:47.461Z,4.05
2023-03-26T10:35:45.406Z,4.57
2023-03-26T10:38:57.100Z,3.72
2023-03-26T10:41:59.329Z,3.47
2023-03-26T10:45:13.918Z,4.32
2023-03-26T10:48:17.672Z,4.82
2023-03-26T10:51:43.462Z,5.07
2023-03-26T10:54:41.193Z,5.20
2023-03-26T10:57:39.491Z,4.47
2023-03-26T11:00:31.248Z,4.85
2023-03-26T11:03:39.985Z,3.20
2023-03-26T11:06:44.128Z,5.05
2023-03-26T11:09:48.415Z,5.72
2023-03-26T11:12:46.545Z,5.20
2023-03-26T11:15:45.733Z,4.43
2023-03-26T11:19:00.644Z,3.13
2023-03-26T11:22:00.098Z,5.53
2023-03-26T11:24:46.098Z,2.88
2023-03-26T11:27:52.279Z,3.63
2023-03-26T11:31:07.506Z,6.18
2023-03-26T11:33:58.679Z,2.20
2023-03-26T11:36:49.424Z,3.20
2023-03-26T11:39:56.727Z,2.60
2023-03-26T11:42:43.695Z,4.22
2023-03-26T11:45:36.811Z,3.35
2023-03-26T11:48:35.739Z,3.22
2023-03-26T11:51:35.764Z,3.30
2023-03-26T11:54:22.471Z,1.23
2023-03-26T11:57:12.978Z,3.55
2023-03-26T12:00:19.464Z,3.08
2023-03-26T12:03:14.681Z,4.78
2023-03-26T12:06:02.798Z,2.25
2023-03-26T12:08:49.643Z,1.38
2023-03-26T12:11:35.841Z,2.38
2023-03-26T12:14:26.107Z,0.98
2023-03-26T12:17:33.330Z,2.53
2023-03-26T12:20:25.281Z,1.35
2023-03-26T12:23:35.066Z,2.10
2023-03-26T12:26:31.738Z,1.73
2023-03-26T12:29:19.081Z,0.90
2023-03-26T12:32:14.308Z,3.17
2023-03-26T12:35:10.777Z,2.05
2023-03-26T12:38:22.227Z,2.55
2023-03-26T12:44:42.054Z,4.80
2023-03-26T12:44:53.797Z,1.45
2023-03-26T12:48:01.001Z,3.42
2023-03-26T12:51:12.554Z,4.88
2023-03-26T12:54:07.093Z,4.57
2023-03-26T12:57:18.481Z,5.35
2023-03-26T13:00:27.516Z,8.82
2023-03-26T13:03:25.002Z,6.97
2023-03-26T13:06:20.412Z,13.48
2023-03-26T13:09:11.770Z,11.93
2023-03-26T13:12:35.532Z,8.88
2023-03-26T13:15:35.263Z,12.48
2023-03-26T13:18:44.799Z,15.85
2023-03-26T13:22:07.885Z,15.52
2023-03-26T13:25:18.059Z,16.42
2023-03-26T13:28:12.054Z,14.18
2023-03-26T13:31:22.251Z,16.60
2023-03-26T13:34:23.605Z,19.95
2023-03-26T13:37:34.271Z,18.60
2023-03-26T13:40:24.853Z,20.75
2023-03-26T13:43:26.512Z,12.93
2023-03-26T13:46:14.894Z,15.60
2023-03-26T13:49:08.202Z,21.63
2023-03-26T13:51:53.762Z,19.83
2023-03-26T13:54:56.628Z,18.73
2023-03-26T13:57:46.268Z,20.40
2023-03-26T14:00:54.473Z,16.20
2023-03-26T14:03:49.421Z,21.40
2023-03-26T14:06:43.527Z,15.60
2023-03-26T14:09:46.170Z,18.38
2023-03-26T14:12:37.394Z,17.27
2023-03-26T14:15:25.864Z,23.58
2023-03-26T14:18:46.226Z,21.80
2023-03-26T14:22:02.492Z,21.50
2023-03-26T14:25:08.618Z,20.85
2023-03-26T14:28:06.650Z,19.95
2023-03-26T14:31:20.820Z,23.65
2023-03-26T14:34:16.080Z,16.73
2023-03-26T14:37:27.339Z,23.33
2023-03-26T14:40:16.977Z,17.33
2023-03-26T14:43:21.712Z,18.80
2023-03-26T14:46:11.804Z,13.73
2023-03-26T14:49:15.968Z,16.88
2023-03-26T14:52:19.038Z,13.90
2023-03-26T14:55:37.697Z,18.00
2023-03-26T14:58:55.869Z,18.38
2023-03-26T15:02:10.634Z,24.65
2023-03-26T15:05:14.305Z,18.35
2023-03-26T15:08:21.374Z,18.98
2023-03-26T15:11:28.571Z,20.95
2023-03-26T15:14:32.637Z,26.30
2023-03-26T15:17:30.646Z,15.98
2023-03-26T15:21:00.821Z,17.45
2023-03-26T15:24:09.836Z,12.75
2023-03-26T15:27:18.696Z,16.33
2023-03-26T15:30:22.955Z,14.52
2023-03-26T15:33:22.710Z,11.48
2023-03-26T15:36:09.311Z,14.57
2023-03-26T15:39:06.664Z,10.77
2023-03-26T15:42:17.228Z,11.80
2023-03-26T15:45:26.610Z,14.98
2023-03-26T15:48:12.257Z,9.48
2023-03-26T15:51:16.740Z,6.63
2023-03-26T15:54:23.289Z,14.35
2023-03-26T15:57:42.149Z,13.25
2023-03-26T16:00:30.821Z,8.52
2023-03-26T16:04:04.950Z,13.82
2023-03-26T16:07:12.027Z,11.98
2023-03-26T16:10:18.333Z,18.98
2023-03-26T16:13:22.799Z,11.43
2023-03-26T16:16:44.923Z,16.00
2023-03-26T16:19:58.407Z,13.32
2023-03-26T16:23:03.352Z,12.60
2023-03-26T16:26:07.843Z,19.45
2023-03-26T16:28:53.442Z,15.80
2023-03-26T16:31:56.772Z,16.90
2023-03-26T16:34:54.522Z,10.05
2023-03-26T16:37:50.067Z,10.88
2023-03-26T16:40:48.420Z,9.80
2023-03-26T16:43:56.340Z,14.82
2023-03-26T16:46:42.411Z,11.75
2023-03-26T16:50:08.128Z,8.70
2023-03-26T16:53:21.144Z,14.23
2023-03-26T16:56:42.188Z,13.15
2023-03-26T17:00:07.974Z,9.40
2023-03-26T17:03:04.316Z,8.07
2023-03-26T17:06:02.189Z,8.02
2023-03-26T17:09:04.506Z,9.02
2023-03-26T17:11:58.306Z,8.88
2023-03-26T17:15:17.876Z,7.03
2023-03-26T17:18:38.475Z,10.93
2023-03-26T17:21:52.096Z,8.45
2023-03-26T17:24:54.052Z,9.23
2023-03-26T17:27:56.263Z,7.63
2023-03-26T17:31:09.683Z,9.90
2023-03-26T17:33:55.785Z,8.18
2023-03-26T17:36:42.715Z,7.95
2023-03-26T17:39:40.347Z,7.13
2023-03-26T17:42:35.478Z,4.10
2023-03-26T17:45:24.169Z,6.88
2023-03-26T17:48:24.010Z,4.68
2023-03-26T17:51:40.222Z,6.93
2023-03-26T17:54:33.965Z,7.20
2023-03-26T17:57:42.376Z,8.85
2023-03-26T18:00:43.186Z,12.75
2023-03-26T18:03:54.991Z,5.32
2023-03-26T18:07:08.236Z,8.10
2023-03-26T18:09:57.144Z,9.80
2023-03-26T18:13:15.243Z,5.18
2023-03-26T18:16:15.522Z,9.23
2023-03-26T18:19:05.129Z,8.82
2023-03-26T18:21:53.436Z,6.03
2023-03-26T18:24:41.375Z,17.40
2023-03-26T18:27:36.077Z,10.70
2023-03-26T18:30:26.297Z,11.50
2023-03-26T18:33:15.987Z,10.40
2023-03-26T18:36:03.760Z,8.73
2023-03-26T18:38:49.927Z,6.05
2023-03-26T18:41:39.459Z,11.02
2023-03-26T18:44:25.133Z,9.13
2023-03-26T18:47:12.397Z,11.35
2023-03-26T18:49:59.674Z,10.60
2023-03-26T18:52:46.146Z,10.77
2023-03-26T18:55:34.461Z,9.90
2023-03-26T18:58:30.188Z,5.40
2023-03-26T19:01:25.029Z,9.20
2023-03-26T19:04:13.075Z,8.82
2023-03-26T19:07:00.367Z,8.00
2023-03-26T19:09:46.333Z,6.07
2023-03-26T19:12:33.949Z,7.60
2023-03-26T19:15:21.112Z,7.60
2023-03-26T19:18:14.035Z,6.22
2023-03-26T19:21:03.414Z,7.05
2023-03-26T19:23:50.022Z,10.38
2023-03-26T19:26:36.677Z,5.45
2023-03-26T19:29:29.688Z,7.10
2023-03-26T19:32:27.976Z,8.98
2023-03-26T19:35:23.857Z,7.85
2023-03-26T19:38:23.765Z,9.38
2023-03-26T19:41:23.044Z,10.27
2023-03-26T19:44:27.010Z,5.30
2023-03-26T19:50:26.095Z,8.82
2023-03-26T19:53:16.801Z,7.18
2023-03-26T19:56:11.047Z,10.02
2023-03-26T19:58:56.915Z,9.15
2023-03-26T20:01:42.480Z,10.38
2023-03-26T20:04:32.803Z,9.57
2023-03-26T20:07:35.016Z,8.88
2023-03-26T20:10:22.268Z,6.35
2023-03-26T20:13:17.674Z,10.77
2023-03-26T20:16:27.090Z,7.85
2023-03-26T20:19:14.096Z,9.15
2023-03-26T20:22:00.740Z,9.60
2023-03-26T20:24:46.514Z,12.63
2023-03-26T20:27:32.038Z,8.95
2023-03-26T20:30:27.505Z,10.90
2023-03-26T20:33:25.737Z,9.38
2023-03-26T20:36:15.173Z,8.68
2023-03-26T20:39:20.204Z,10.25
2023-03-26T20:42:05.946Z,15.65
2023-03-26T20:44:51.315Z,5.82
2023-03-26T20:47:37.747Z,14.45
2023-03-26T20:50:24.410Z,16.05
2023-03-26T20:53:16.641Z,4.35
2023-03-26T20:56:02.465Z,9.77
2023-03-26T20:58:54.669Z,8.60
2023-03-26T21:01:43.241Z,7.22
2023-03-26T21:04:29.259Z,11.50
2023-03-26T21:07:18.417Z,10.85
2023-03-26T21:10:05.054Z,11.18
2023-03-26T21:12:58.468Z,6.57
2023-03-26T21:15:43.931Z,5.10
2023-03-26T21:18:29.689Z,6.03
2023-03-26T21:21:24.202Z,6.45
2023-03-26T21:24:33.240Z,13.55
2023-03-26T21:27:28.558Z,9.23
2023-03-26T21:30:16.509Z,8.23
2023-03-26T21:33:05.192Z,6.13
2023-03-26T21:35:51.823Z,9.52
2023-03-26T21:38:38.802Z,9.05
2023-03-26T21:42:04.845Z,13.00
2023-03-26T21:44:51.595Z,6.90
2023-03-26T21:47:37.334Z,7.03
2023-03-26T21:50:23.726Z,10.43
2023-03-26T21:53:15.377Z,8.30
2023-03-26T21:56:21.981Z,7.07
2023-03-26T21:59:22.710Z,12.95
2023-03-26T22:02:46.976Z,6.30
2023-03-26T22:08:31.129Z,9.45
2023-03-26T22:11:16.649Z,6.43
2023-03-26T22:14:03.049Z,8.13
2023-03-26T22:16:48.701Z,10.18
2023-03-26T22:19:34.764Z,7.78
2023-03-26T22:22:22.116Z,7.15
2023-03-26T22:25:10.373Z,6.47
2023-03-26T22:27:57.677Z,9.98
2023-03-26T22:30:43.296Z,7.88
2023-03-26T22:33:29.042Z,10.25
2023-03-26T22:36:23.521Z,5.57
2023-03-26T22:39:09.521Z,9.25
2023-03-26T22:41:55.466Z,10.82
2023-03-26T22:44:40.922Z,5.57
2023-03-26T22:47:26.665Z,7.38
2023-03-26T22:50:12.725Z,6.70
2023-03-26T22:52:58.541Z,9.98
2023-03-26T22:55:44.536Z,10.75
2023-03-26T22:58:30.281Z,5.70
2023-03-26T23:01:21.954Z,11.60
2023-03-26T23:04:08.459Z,6.95
2023-03-26T23:06:55.084Z,10.30
2023-03-26T23:09:40.695Z,8.30
2023-03-26T23:12:26.037Z,9.65
2023-03-26T23:15:11.872Z,7.30
2023-03-26T23:17:59.334Z,9.20
2023-03-26T23:20:56.838Z,4.80
2023-03-26T23:23:42.816Z,11.50
2023-03-26T23:26:34.906Z,10.55
2023-03-26T23:29:23.741Z,11.63
2023-03-26T23:32:23.393Z,12.55
2023-03-26T23:35:11.235Z,7.05
2023-03-26T23:37:57.010Z,7.63
2023-03-26T23:40:46.260Z,11.27
2023-03-26T23:43:53.954Z,9.82
2023-03-26T23:46:42.657Z,8.68
2023-03-26T23:49:28.454Z,9.07
2023-03-26T23:52:14.145Z,9.63
2023-03-26T23:54:59.949Z,9.18
2023-03-26T23:57:45.281Z,4.72
